Flight Track Log - Related Links

Times and Time Zones

All times are in EST time to prevent confusion due to time zone crossing. See the TRS265 flight status page for this flight to view local times or setup timezone preferences in your user account.

Time Position Orientation Groundspeed Altitude Reporting Facility
EST Latitude Longitude Course Direction KTS MPH feet Rate Location/Type
Sat 10:15:39 AM 28.4167 -81.3000 204° Southwest 175 201 500  Level Orlando TRACON
Sat 10:16:45 AM 28.3500 -81.3333 204° Southwest 237 273 2,400 2,033 Climbing Orlando TRACON
Sat 10:17:40 AM 28.3333 -81.4000 254° West 279 321 4,600 2,684 Climbing Orlando TRACON
Sat 10:19:17 AM 28.3967 -81.4839 311° West 269 310 9,200 2,446 Climbing Jacksonville Center
Sat 10:20:17 AM 28.4658 -81.4947 352° North 269 310 11,000 1,438 Climbing Jacksonville Center
Sat 10:21:18 AM 28.5661 -81.5028 356° North 311 358 12,100 1,450 Climbing Jacksonville Center
Sat 10:22:17 AM 28.6706 -81.5250 349° North 349 402 13,900 1,866 Climbing Jacksonville Center
Sat 10:23:17 AM 28.7794 -81.5494 349° North 377 434 15,800 1,900 Climbing Jacksonville Center
Sat 10:24:17 AM 28.8986 -81.5811 347° North 392 451 17,700 1,750 Climbing Jacksonville Center
Sat 10:25:17 AM 29.0117 -81.6081 348° North 399 459 19,300 1,500 Climbing Jacksonville Center
Sat 10:26:17 AM 29.1247 -81.6328 349° North 410 472 20,700 1,300 Climbing Jacksonville Center
Sat 10:27:17 AM 29.2333 -81.6600 348° North 423 487 21,900 1,250 Climbing Jacksonville Center
Sat 10:28:17 AM 29.3528 -81.6917 347° North 429 494 23,200 1,300 Climbing Jacksonville Center
Sat 10:29:17 AM 29.4742 -81.7214 348° North 434 499 24,500 1,300 Climbing Jacksonville Center
Sat 10:30:17 AM 29.5975 -81.7483 349° North 440 506 25,800 1,050 Climbing Jacksonville Center
Sat 10:31:17 AM 29.7208 -81.7758 349° North 446 513 26,600 1,000 Climbing Jacksonville Center
Sat 10:32:17 AM 29.8486 -81.8053 349° North 458 527 27,800 1,240 Climbing Jacksonville Center
Sat 10:33:18 AM 29.9739 -81.8353 348° North 458 527 29,100 1,537 Climbing Jacksonville Center
Sat 10:34:18 AM 30.1078 -81.8650 349° North 450 518 30,900 958 Climbing Jacksonville Center
Sat 10:35:17 AM 30.2333 -81.8853 352° North 440 506 31,000 50 Climbing Jacksonville Center
Sat 10:36:18 AM 30.3544 -81.9008 354° North 452 520 31,000  Level Jacksonville Center
Sat 10:37:17 AM 30.4697 -81.9478 341° North 441 507 31,000  Level Jacksonville Center
Sat 10:38:17 AM 30.5869 -81.9997 339° North 441 507 31,000  Level Jacksonville Center
Sat 10:39:18 AM 30.7022 -82.0494 340° North 447 514 31,000  Level Jacksonville Center
Sat 10:40:18 AM 30.8194 -82.0967 341° North 447 514 31,000  Level Jacksonville Center
Sat 10:41:18 AM 30.9344 -82.1442 340° North 442 509 31,000  Level Jacksonville Center
Sat 10:42:18 AM 31.0497 -82.1942 340° North 442 509 31,000  Level Jacksonville Center
Sat 10:43:18 AM 31.1647 -82.2419 340° North 442 509 31,000  Level Jacksonville Center
Sat 10:44:18 AM 31.2819 -82.2922 340° North 442 509 31,000  Level Jacksonville Center
Sat 10:45:18 AM 31.3886 -82.3303 343° North 442 509 31,000  Level Jacksonville Center
Sat 10:46:17 AM 31.5036 -82.3783 340° North 442 509 31,000  Level Jacksonville Center
Sat 10:47:18 AM 31.6208 -82.4267 341° North 442 509 31,000  Level Jacksonville Center
Sat 10:48:18 AM 31.7358 -82.4750 340° North 442 509 31,000  Level Jacksonville Center
Sat 10:49:42 AM 31.8983 -82.5492 339° North 454 522 31,000  Level Atlanta Center
Sat 10:50:42 AM 32.0136 -82.5986 340° North 448 516 31,000 350 Level Atlanta Center
Sat 10:51:42 AM 32.1289 -82.6458 341° North 442 509 31,700 500 Climbing Atlanta Center
Sat 10:52:42 AM 32.2422 -82.6931 341° North 435 501 32,000 150 Climbing Atlanta Center
Sat 10:53:42 AM 32.3556 -82.7431 340° North 435 501 32,000  Level Atlanta Center
Sat 10:54:42 AM 32.4708 -82.7931 340° North 430 495 32,000  Level Atlanta Center
Sat 10:55:42 AM 32.5797 -82.8408 340° North 430 495 32,000  Level Atlanta Center
Sat 10:56:42 AM 32.6889 -82.9011 335° Northwest 424 488 32,000  Level Atlanta Center
Sat 10:57:42 AM 32.7958 -82.9639 334° Northwest 424 488 32,000  Level Atlanta Center
Sat 10:58:42 AM 32.9031 -83.0219 336° Northwest 424 488 32,000  Level Atlanta Center
Sat 10:59:42 AM 33.0078 -83.0828 334° Northwest 419 482 32,000  Level Atlanta Center
Sat 11:00:42 AM 33.1253 -83.1483 335° Northwest 419 482 32,000  Level Atlanta Center
Sat 11:01:42 AM 33.2342 -83.2069 336° Northwest 424 488 32,000  Level Atlanta Center
Sat 11:02:42 AM 33.3389 -83.2681 334° Northwest 424 488 32,000  Level Atlanta Center
Sat 11:03:42 AM 33.4478 -83.3292 335° Northwest 424 488 32,000  Level Atlanta Center
Sat 11:04:42 AM 33.5567 -83.3856 337° Northwest 424 488 32,000  Level Atlanta Center
Sat 11:05:42 AM 33.6633 -83.4472 334° Northwest 419 482 32,000  Level Atlanta Center
Sat 11:06:42 AM 33.7700 -83.5064 335° Northwest 425 489 32,000  Level Atlanta Center
Sat 11:07:42 AM 33.8683 -83.5611 335° Northwest 419 482 32,000  Level Atlanta Center
Sat 11:08:42 AM 33.9731 -83.6231 334° Northwest 420 483 32,000  Level Atlanta Center
Sat 11:09:42 AM 34.0775 -83.6803 336° Northwest 420 483 32,000  Level Atlanta Center
Sat 11:10:42 AM 34.1822 -83.7400 335° Northwest 414 476 32,000  Level Atlanta Center
Sat 11:11:42 AM 34.2867 -83.8000 335° Northwest 414 476 32,000  Level Atlanta Center
Sat 11:12:42 AM 34.3889 -83.8600 334° Northwest 414 476 32,000  Level Atlanta Center
Sat 11:13:42 AM 34.4956 -83.9153 337° Northwest 408 470 32,000  Level Atlanta Center
Sat 11:14:42 AM 34.5997 -83.9758 334° Northwest 408 470 32,000  Level Atlanta Center
Sat 11:15:42 AM 34.6958 -84.0414 331° Northwest 401 461 32,000  Level Atlanta Center
Sat 11:16:42 AM 34.8022 -84.0994 336° Northwest 401 461 32,000  Level Atlanta Center
Sat 11:17:42 AM 34.9067 -84.1628 334° Northwest 406 467 32,000  Level Atlanta Center
Sat 11:18:42 AM 35.0089 -84.2214 335° Northwest 406 467 32,000  Level Atlanta Center
Sat 11:19:42 AM 35.1108 -84.2825 334° Northwest 406 467 32,000  Level Atlanta Center
Sat 11:20:42 AM 35.2172 -84.3439 335° Northwest 406 467 32,000  Level Atlanta Center
Sat 11:21:42 AM 35.3214 -84.4053 334° Northwest 406 467 32,000  Level Atlanta Center
Sat 11:22:42 AM 35.4233 -84.4669 334° Northwest 406 467 32,000  Level Atlanta Center
Sat 11:23:42 AM 35.5294 -84.5286 335° Northwest 406 467 32,000  Level Atlanta Center
Sat 11:26:02 AM 35.7700 -84.6711 334° Northwest 405 466 32,000  Level Indianapolis Center
Sat 11:27:03 AM 35.8694 -84.7306 334° Northwest 404 465 32,000  Level Indianapolis Center
Sat 11:28:05 AM 35.9675 -84.7889 334° Northwest 403 464 32,000  Level Indianapolis Center
Sat 11:29:06 AM 36.0858 -84.8606 334° Northwest 401 461 32,000  Level Indianapolis Center
Sat 11:30:08 AM 36.1839 -84.9203 334° Northwest 396 456 32,000  Level Indianapolis Center
Sat 11:31:09 AM 36.2836 -84.9800 334° Northwest 397 457 32,000  Level Indianapolis Center
Sat 11:32:11 AM 36.3822 -85.0406 334° Northwest 397 457 32,000  Level Indianapolis Center
Sat 11:33:12 AM 36.4783 -85.1011 333° Northwest 391 450 32,000  Level Indianapolis Center
Sat 11:34:14 AM 36.5769 -85.1606 334° Northwest 391 450 32,000  Level Indianapolis Center
Sat 11:35:15 AM 36.6814 -85.2086 340° North 398 458 32,000  Level Indianapolis Center
Sat 11:36:17 AM 36.8081 -85.2644 341° North 401 461 32,000  Level Indianapolis Center
Sat 11:37:18 AM 36.9133 -85.3106 341° North 403 464 32,000  Level Indianapolis Center
Sat 11:38:20 AM 37.0194 -85.3569 341° North 403 464 32,000  Level Indianapolis Center
Sat 11:39:21 AM 37.1197 -85.4017 340° North 401 461 32,000  Level Indianapolis Center
Sat 11:40:23 AM 37.2250 -85.4478 341° North 399 459 32,000  Level Indianapolis Center
Sat 11:41:24 AM 37.3297 -85.4933 341° North 397 457 32,000  Level Indianapolis Center
Sat 11:42:26 AM 37.4367 -85.5408 341° North 401 461 32,000  Level Indianapolis Center
Sat 11:43:27 AM 37.5417 -85.5867 341° North 398 458 32,000  Level Indianapolis Center
Sat 11:44:29 AM 37.6453 -85.6339 340° North 396 456 32,000  Level Indianapolis Center
Sat 11:45:30 AM 37.7686 -85.6892 340° North 391 450 32,000  Level Indianapolis Center
Sat 11:46:32 AM 37.8725 -85.7347 341° North 392 451 32,000  Level Indianapolis Center
Sat 11:47:33 AM 37.9744 -85.7800 341° North 388 447 32,000  Level Indianapolis Center
Sat 11:48:35 AM 38.0756 -85.8275 340° North 385 443 32,000  Level Indianapolis Center
Sat 11:49:36 AM 38.1792 -85.8731 341° North 391 450 32,000  Level Indianapolis Center
Sat 11:50:38 AM 38.2811 -85.9189 341° North 389 448 32,000  Level Indianapolis Center
Sat 11:51:39 AM 38.3831 -85.9656 340° North 388 447 32,000  Level Indianapolis Center
Sat 11:52:41 AM 38.4844 -86.0125 340° North 388 447 32,000  Level Indianapolis Center
Sat 11:53:42 AM 38.5869 -86.0586 341° North 391 450 32,000  Level Indianapolis Center
Sat 11:54:44 AM 38.7094 -86.1156 340° North 389 448 32,000  Level Indianapolis Center
Sat 11:55:45 AM 38.8111 -86.1622 340° North 388 447 32,000  Level Indianapolis Center
Sat 11:56:47 AM 38.9114 -86.2086 340° North 388 447 32,000  Level Indianapolis Center
Sat 11:57:48 AM 39.0133 -86.2564 340° North 391 450 32,000  Level Indianapolis Center
Sat 11:58:50 AM 39.1147 -86.3039 340° North 389 448 32,000  Level Indianapolis Center
Sat 11:59:51 AM 39.2167 -86.3503 341° North 389 448 32,000  Level Indianapolis Center
Sat 12:00:53 PM 39.3167 -86.3972 340° North 385 443 32,000  Level Indianapolis Center
Sat 12:01:55 PM 39.4164 -86.4444 340° North 382 440 32,000  Level Indianapolis Center
Sat 12:02:56 PM 39.5156 -86.4906 340° North 379 436 32,000  Level Indianapolis Center
Sat 12:03:58 PM 39.6331 -86.5475 340° North 373 429 32,000  Level Indianapolis Center
Sat 12:04:59 PM 39.7319 -86.5933 340° North 373 429 32,000  Level Indianapolis Center
Sat 12:06:00 PM 39.8289 -86.6397 340° North 370 426 32,000  Level Indianapolis Center
Sat 12:07:02 PM 39.9247 -86.6847 340° North 367 422 32,000  Level Indianapolis Center
Sat 12:08:03 PM 40.0197 -86.7306 340° North 364 419 32,000  Level Indianapolis Center
Sat 12:09:05 PM 40.1072 -86.7881 333° Northwest 353 406 32,000  Level Indianapolis Center
Sat 12:10:06 PM 40.1961 -86.8425 335° Northwest 353 406 32,000  Level Indianapolis Center
Sat 12:11:08 PM 40.2844 -86.8969 335° Northwest 354 407 32,000  Level Indianapolis Center
Sat 12:12:12 PM 40.3889 -86.9639 334° Northwest 348 400 32,000  Level Chicago Center
Sat 12:13:13 PM 40.4767 -87.0186 335° Northwest 350 403 32,000  Level Chicago Center
Sat 12:14:15 PM 40.5667 -87.0692 337° Northwest 355 409 32,000  Level Chicago Center
Sat 12:15:16 PM 40.6747 -87.0839 354° North 389 448 32,000  Level Chicago Center
Sat 12:16:18 PM 40.7881 -87.0978 355° North 385 443 32,000  Level Chicago Center
Sat 12:17:20 PM 40.8939 -87.1128 354° North 384 442 32,000  Level Chicago Center
Sat 12:18:21 PM 40.9978 -87.1264 354° North 380 437 32,000  Level Chicago Center
Sat 12:19:23 PM 41.1022 -87.1389 355° North 380 437 32,000 -98 Level Chicago Center
Sat 12:20:24 PM 41.2267 -87.1547 355° North 378 435 31,800 -439 Descending Chicago Center
Sat 12:21:26 PM 41.3289 -87.1686 354° North 373 429 31,100 -726 Descending Chicago Center
Sat 12:22:28 PM 41.4361 -87.1825 354° North 385 443 30,300 -878 Descending Chicago Center
Sat 12:23:29 PM 41.5497 -87.1978 354° North 408 470 29,300 -927 Descending Chicago Center
Sat 12:24:31 PM 41.6589 -87.2125 354° North 400 460 28,400 -927 Descending Chicago Center
Sat 12:25:32 PM 41.7644 -87.2272 354° North 388 447 27,400 -1,024 Descending Chicago Center
Sat 12:26:34 PM 41.8694 -87.2400 355° North 384 442 26,300 -1,113 Descending Chicago Center
Sat 12:27:36 PM 41.9961 -87.2564 355° North 384 442 25,100 -1,171 Descending Chicago Center
Sat 12:28:37 PM 42.1008 -87.2697 355° North 381 438 23,900 -1,512 Descending Chicago Center
Sat 12:29:39 PM 42.2000 -87.2825 355° North 364 419 22,000 -2,146 Descending Chicago Center
Sat 12:30:40 PM 42.2956 -87.2956 354° North 349 402 19,500 -2,098 Descending Chicago Center
Sat 12:31:42 PM 42.3878 -87.3078 354° North 336 387 17,700 -2,244 Descending Chicago Center
Sat 12:32:43 PM 42.4767 -87.3203 354° North 330 380 14,900 -2,927 Descending Chicago Center
Sat 12:33:45 PM 42.5781 -87.3339 354° North 308 354 11,700 -2,274 Descending Chicago Center
Sat 12:34:47 PM 42.6575 -87.3433 355° North 292 336 10,200 -878 Descending Chicago Center
Sat 12:35:48 PM 42.7078 -87.3811 331° Northwest 232 267 9,900 -878 Descending Chicago Center
Sat 12:36:50 PM 42.7025 -87.4572 265° West 216 249 8,400 -1,403 Descending Chicago Center
Sat 12:37:52 PM 42.6922 -87.5375 260° West 216 249 7,000 -1,171 Descending Chicago Center
Sat 12:38:53 PM 42.6831 -87.6147 261° West 211 243 6,000 -488 Descending Chicago Center
Sat 12:39:55 PM 42.6733 -87.7114 262° West 214 246 6,000 -634 Level Chicago Center
Sat 12:40:56 PM 42.6925 -87.7753 292° West 211 243 4,700 -1,366 Descending Chicago Center
Sat 12:41:58 PM 42.7361 -87.8136 327° Northwest 192 221 3,200 -1,016 Descending Chicago Center
Sat 12:43:00 PM 42.7750 -87.8567 321° Northwest 186 214 2,600 -293 Descending Chicago Center
Sat 12:44:01 PM 42.8156 -87.8914 328° Northwest 179 206 2,600 -98 Level Chicago Center
Sat 12:45:03 PM 42.8528 -87.9081 342° North 178 205 2,400 -387 Descending Chicago Center
Sat 12:46:05 PM 42.8856 -87.9050 North 141 162 1,800 -439 Descending Chicago Center
Sat 12:47:06 PM 42.9225 -87.8978 North 132 152 1,500 -295 Descending Chicago Center
Sat 12:49:00 PM 42.9333 -87.8833 36° Northeast  Level FlightAware Approximate
Sat 12:56:00 PM 42.9469 -87.8971 36° Northeast  Level Estimated

Login

Don't have an account? Register now (free) for customized features, flight alerts, and more!